sensor_id;sensor_type;location;lat;lon;timestamp;temperature;humidity
71175;DHT22;58876;51.994;4.472;2022-08-21T00:02:01;19.07;73.28
71175;DHT22;58876;51.994;4.472;2022-08-21T00:04:26;18.99;73.72
71175;DHT22;58876;51.994;4.472;2022-08-21T00:06:52;19.04;73.76
71175;DHT22;58876;51.994;4.472;2022-08-21T00:09:19;19.08;73.65
71175;DHT22;58876;51.994;4.472;2022-08-21T00:11:44;19.11;73.50
71175;DHT22;58876;51.994;4.472;2022-08-21T00:14:12;19.08;73.43
71175;DHT22;58876;51.994;4.472;2022-08-21T00:16:38;19.11;73.02
71175;DHT22;58876;51.994;4.472;2022-08-21T00:19:04;19.08;73.71
71175;DHT22;58876;51.994;4.472;2022-08-21T00:21:32;18.97;73.95
71175;DHT22;58876;51.994;4.472;2022-08-21T00:23:58;18.97;73.85
71175;DHT22;58876;51.994;4.472;2022-08-21T00:26:24;19.05;73.58
71175;DHT22;58876;51.994;4.472;2022-08-21T00:28:49;18.99;73.27
71175;DHT22;58876;51.994;4.472;2022-08-21T00:31:15;18.99;72.78
71175;DHT22;58876;51.994;4.472;2022-08-21T00:33:42;18.81;73.24
71175;DHT22;58876;51.994;4.472;2022-08-21T00:36:08;18.80;73.00
71175;DHT22;58876;51.994;4.472;2022-08-21T00:38:33;18.88;72.68
71175;DHT22;58876;51.994;4.472;2022-08-21T00:41:02;18.88;72.40
71175;DHT22;58876;51.994;4.472;2022-08-21T00:43:35;18.85;72.09
71175;DHT22;58876;51.994;4.472;2022-08-21T00:46:02;18.81;72.04
71175;DHT22;58876;51.994;4.472;2022-08-21T00:48:28;18.78;71.93
71175;DHT22;58876;51.994;4.472;2022-08-21T00:51:03;18.80;71.81
71175;DHT22;58876;51.994;4.472;2022-08-21T00:53:30;18.74;71.69
71175;DHT22;58876;51.994;4.472;2022-08-21T00:55:58;18.77;71.72
71175;DHT22;58876;51.994;4.472;2022-08-21T00:58:27;18.80;70.88
71175;DHT22;58876;51.994;4.472;2022-08-21T01:00:56;18.72;71.65
71175;DHT22;58876;51.994;4.472;2022-08-21T01:03:24;18.67;71.84
71175;DHT22;58876;51.994;4.472;2022-08-21T01:05:51;18.64;71.95
71175;DHT22;58876;51.994;4.472;2022-08-21T01:08:19;18.63;72.01
71175;DHT22;58876;51.994;4.472;2022-08-21T01:10:46;18.70;71.90
71175;DHT22;58876;51.994;4.472;2022-08-21T01:13:15;18.63;72.11
71175;DHT22;58876;51.994;4.472;2022-08-21T01:15:44;18.63;72.07
71175;DHT22;58876;51.994;4.472;2022-08-21T01:18:12;18.71;71.53
71175;DHT22;58876;51.994;4.472;2022-08-21T01:20:43;18.65;71.87
71175;DHT22;58876;51.994;4.472;2022-08-21T01:23:11;18.56;72.28
71175;DHT22;58876;51.994;4.472;2022-08-21T01:25:37;18.47;72.69
71175;DHT22;58876;51.994;4.472;2022-08-21T01:28:13;18.47;72.86
71175;DHT22;58876;51.994;4.472;2022-08-21T01:30:40;18.43;72.94
71175;DHT22;58876;51.994;4.472;2022-08-21T01:33:07;18.44;72.68
71175;DHT22;58876;51.994;4.472;2022-08-21T01:35:33;18.32;73.23
71175;DHT22;58876;51.994;4.472;2022-08-21T01:37:58;18.34;73.51
71175;DHT22;58876;51.994;4.472;2022-08-21T01:40:24;18.43;72.92
71175;DHT22;58876;51.994;4.472;2022-08-21T01:42:52;18.46;73.03
71175;DHT22;58876;51.994;4.472;2022-08-21T01:45:19;18.49;72.91
71175;DHT22;58876;51.994;4.472;2022-08-21T01:47:44;18.49;72.91
71175;DHT22;58876;51.994;4.472;2022-08-21T01:50:13;18.50;72.46
71175;DHT22;58876;51.994;4.472;2022-08-21T01:52:39;18.49;72.67
71175;DHT22;58876;51.994;4.472;2022-08-21T01:55:07;18.47;72.71
71175;DHT22;58876;51.994;4.472;2022-08-21T01:57:33;18.46;72.97
71175;DHT22;58876;51.994;4.472;2022-08-21T01:59:59;18.37;72.74
71175;DHT22;58876;51.994;4.472;2022-08-21T02:02:25;18.39;73.06
71175;DHT22;58876;51.994;4.472;2022-08-21T02:04:51;18.36;72.85
71175;DHT22;58876;51.994;4.472;2022-08-21T02:07:16;18.30;72.71
71175;DHT22;58876;51.994;4.472;2022-08-21T02:09:42;18.29;73.06
71175;DHT22;58876;51.994;4.472;2022-08-21T02:12:09;18.28;72.46
71175;DHT22;58876;51.994;4.472;2022-08-21T02:14:34;18.25;72.90
71175;DHT22;58876;51.994;4.472;2022-08-21T02:17:00;18.23;72.53
71175;DHT22;58876;51.994;4.472;2022-08-21T02:19:26;18.20;73.48
71175;DHT22;58876;51.994;4.472;2022-08-21T02:21:51;18.12;73.86
71175;DHT22;58876;51.994;4.472;2022-08-21T02:24:16;18.10;74.24
71175;DHT22;58876;51.994;4.472;2022-08-21T02:26:42;18.09;74.53
71175;DHT22;58876;51.994;4.472;2022-08-21T02:29:07;18.09;74.62
71175;DHT22;58876;51.994;4.472;2022-08-21T02:31:33;17.99;74.91
71175;DHT22;58876;51.994;4.472;2022-08-21T02:33:58;18.02;74.58
71175;DHT22;58876;51.994;4.472;2022-08-21T02:36:25;18.01;74.68
71175;DHT22;58876;51.994;4.472;2022-08-21T02:38:50;18.03;74.90
71175;DHT22;58876;51.994;4.472;2022-08-21T02:41:20;18.01;74.67
71175;DHT22;58876;51.994;4.472;2022-08-21T02:43:48;17.96;74.80
71175;DHT22;58876;51.994;4.472;2022-08-21T02:46:16;17.98;74.87
71175;DHT22;58876;51.994;4.472;2022-08-21T02:48:43;17.95;75.36
71175;DHT22;58876;51.994;4.472;2022-08-21T02:51:12;17.98;75.30
71175;DHT22;58876;51.994;4.472;2022-08-21T02:53:40;17.95;75.41
71175;DHT22;58876;51.994;4.472;2022-08-21T02:56:09;17.93;75.68
71175;DHT22;58876;51.994;4.472;2022-08-21T02:58:40;17.92;75.44
71175;DHT22;58876;51.994;4.472;2022-08-21T03:01:07;17.85;75.81
71175;DHT22;58876;51.994;4.472;2022-08-21T03:03:38;17.83;75.50
71175;DHT22;58876;51.994;4.472;2022-08-21T03:06:05;17.78;76.00
71175;DHT22;58876;51.994;4.472;2022-08-21T03:08:31;17.85;75.67
71175;DHT22;58876;51.994;4.472;2022-08-21T03:10:56;17.75;75.85
71175;DHT22;58876;51.994;4.472;2022-08-21T03:13:22;17.74;76.11
71175;DHT22;58876;51.994;4.472;2022-08-21T03:15:49;17.71;76.31
71175;DHT22;58876;51.994;4.472;2022-08-21T03:18:16;17.72;76.18
71175;DHT22;58876;51.994;4.472;2022-08-21T03:20:42;17.70;75.73
71175;DHT22;58876;51.994;4.472;2022-08-21T03:23:08;17.70;75.34
71175;DHT22;58876;51.994;4.472;2022-08-21T03:25:35;17.74;75.90
71175;DHT22;58876;51.994;4.472;2022-08-21T03:28:03;17.74;75.96
71175;DHT22;58876;51.994;4.472;2022-08-21T03:30:28;17.67;76.11
71175;DHT22;58876;51.994;4.472;2022-08-21T03:32:57;17.67;76.17
71175;DHT22;58876;51.994;4.472;2022-08-21T03:35:24;17.70;76.28
71175;DHT22;58876;51.994;4.472;2022-08-21T03:37:49;17.68;76.60
71175;DHT22;58876;51.994;4.472;2022-08-21T03:40:18;17.61;76.70
71175;DHT22;58876;51.994;4.472;2022-08-21T03:42:44;17.61;76.53
71175;DHT22;58876;51.994;4.472;2022-08-21T03:45:14;17.57;77.18
71175;DHT22;58876;51.994;4.472;2022-08-21T03:48:00;17.55;77.00
71175;DHT22;58876;51.994;4.472;2022-08-21T03:50:29;17.52;77.10
71175;DHT22;58876;51.994;4.472;2022-08-21T03:52:57;17.55;77.26
71175;DHT22;58876;51.994;4.472;2022-08-21T03:55:23;17.58;76.77
71175;DHT22;58876;51.994;4.472;2022-08-21T03:57:49;17.62;76.70
71175;DHT22;58876;51.994;4.472;2022-08-21T04:00:15;17.57;77.16
71175;DHT22;58876;51.994;4.472;2022-08-21T04:02:43;17.55;77.12
71175;DHT22;58876;51.994;4.472;2022-08-21T04:05:10;17.48;77.62
71175;DHT22;58876;51.994;4.472;2022-08-21T04:07:36;17.44;77.77
71175;DHT22;58876;51.994;4.472;2022-08-21T04:10:04;17.44;77.73
71175;DHT22;58876;51.994;4.472;2022-08-21T04:12:31;17.37;78.29
71175;DHT22;58876;51.994;4.472;2022-08-21T04:14:57;17.38;78.11
71175;DHT22;58876;51.994;4.472;2022-08-21T04:17:22;17.40;77.76
71175;DHT22;58876;51.994;4.472;2022-08-21T04:19:48;17.30;78.75
71175;DHT22;58876;51.994;4.472;2022-08-21T04:22:15;17.33;78.56
71175;DHT22;58876;51.994;4.472;2022-08-21T04:24:41;17.34;78.27
71175;DHT22;58876;51.994;4.472;2022-08-21T04:27:06;17.28;78.76
71175;DHT22;58876;51.994;4.472;2022-08-21T04:29:31;17.23;79.44
71175;DHT22;58876;51.994;4.472;2022-08-21T04:31:57;17.26;79.44
71175;DHT22;58876;51.994;4.472;2022-08-21T04:34:22;17.09;80.10
71175;DHT22;58876;51.994;4.472;2022-08-21T04:36:48;17.04;80.38
71175;DHT22;58876;51.994;4.472;2022-08-21T04:39:13;17.10;80.41
71175;DHT22;58876;51.994;4.472;2022-08-21T04:41:38;17.11;80.34
71175;DHT22;58876;51.994;4.472;2022-08-21T04:44:05;17.13;80.08
71175;DHT22;58876;51.994;4.472;2022-08-21T04:46:32;17.06;80.60
71175;DHT22;58876;51.994;4.472;2022-08-21T04:48:57;17.03;80.82
71175;DHT22;58876;51.994;4.472;2022-08-21T04:51:30;17.10;80.32
71175;DHT22;58876;51.994;4.472;2022-08-21T04:54:10;17.06;80.85
71175;DHT22;58876;51.994;4.472;2022-08-21T04:56:50;16.99;80.83
71175;DHT22;58876;51.994;4.472;2022-08-21T04:59:22;17.16;80.29
71175;DHT22;58876;51.994;4.472;2022-08-21T05:01:49;17.11;80.95
71175;DHT22;58876;51.994;4.472;2022-08-21T05:04:20;17.21;80.55
71175;DHT22;58876;51.994;4.472;2022-08-21T05:06:48;17.24;80.51
71175;DHT22;58876;51.994;4.472;2022-08-21T05:09:17;17.31;80.46
71175;DHT22;58876;51.994;4.472;2022-08-21T05:11:44;17.30;80.52
71175;DHT22;58876;51.994;4.472;2022-08-21T05:14:11;17.38;79.96
71175;DHT22;58876;51.994;4.472;2022-08-21T05:16:36;17.35;80.49
71175;DHT22;58876;51.994;4.472;2022-08-21T05:19:02;17.38;80.07
71175;DHT22;58876;51.994;4.472;2022-08-21T05:21:27;17.41;79.78
71175;DHT22;58876;51.994;4.472;2022-08-21T05:23:53;17.41;80.24
71175;DHT22;58876;51.994;4.472;2022-08-21T05:26:18;17.41;80.45
71175;DHT22;58876;51.994;4.472;2022-08-21T05:28:44;17.50;80.48
71175;DHT22;58876;51.994;4.472;2022-08-21T05:31:10;17.57;80.15
71175;DHT22;58876;51.994;4.472;2022-08-21T05:33:35;17.64;79.91
71175;DHT22;58876;51.994;4.472;2022-08-21T05:36:01;17.51;79.98
71175;DHT22;58876;51.994;4.472;2022-08-21T05:38:26;17.50;80.70
71175;DHT22;58876;51.994;4.472;2022-08-21T05:40:53;17.67;80.07
71175;DHT22;58876;51.994;4.472;2022-08-21T05:43:19;17.70;79.72
71175;DHT22;58876;51.994;4.472;2022-08-21T05:45:45;17.86;79.51
71175;DHT22;58876;51.994;4.472;2022-08-21T05:48:12;17.93;79.42
71175;DHT22;58876;51.994;4.472;2022-08-21T05:50:38;17.88;79.19
71175;DHT22;58876;51.994;4.472;2022-08-21T05:53:05;18.01;78.82
71175;DHT22;58876;51.994;4.472;2022-08-21T05:55:31;18.13;78.83
71175;DHT22;58876;51.994;4.472;2022-08-21T05:57:56;18.22;78.34
71175;DHT22;58876;51.994;4.472;2022-08-21T06:00:22;18.29;78.26
71175;DHT22;58876;51.994;4.472;2022-08-21T06:02:50;18.32;78.31
71175;DHT22;58876;51.994;4.472;2022-08-21T06:05:16;18.33;78.69
71175;DHT22;58876;51.994;4.472;2022-08-21T06:07:42;18.19;79.03
71175;DHT22;58876;51.994;4.472;2022-08-21T06:10:09;18.32;78.43
71175;DHT22;58876;51.994;4.472;2022-08-21T06:12:34;18.41;78.64
71175;DHT22;58876;51.994;4.472;2022-08-21T06:15:00;18.41;78.45
71175;DHT22;58876;51.994;4.472;2022-08-21T06:17:25;18.46;78.54
71175;DHT22;58876;51.994;4.472;2022-08-21T06:19:52;18.49;78.30
71175;DHT22;58876;51.994;4.472;2022-08-21T06:22:18;18.53;77.92
71175;DHT22;58876;51.994;4.472;2022-08-21T06:24:43;18.54;78.33
71175;DHT22;58876;51.994;4.472;2022-08-21T06:27:09;18.51;78.96
71175;DHT22;58876;51.994;4.472;2022-08-21T06:29:34;18.53;78.70
71175;DHT22;58876;51.994;4.472;2022-08-21T06:32:00;18.59;78.77
71175;DHT22;58876;51.994;4.472;2022-08-21T06:34:26;18.71;78.31
71175;DHT22;58876;51.994;4.472;2022-08-21T06:36:52;18.84;78.25
71175;DHT22;58876;51.994;4.472;2022-08-21T06:39:17;18.98;77.52
71175;DHT22;58876;51.994;4.472;2022-08-21T06:41:43;18.83;78.25
71175;DHT22;58876;51.994;4.472;2022-08-21T06:44:09;19.01;78.12
71175;DHT22;58876;51.994;4.472;2022-08-21T06:46:34;19.20;77.48
71175;DHT22;58876;51.994;4.472;2022-08-21T06:49:00;19.33;77.66
71175;DHT22;58876;51.994;4.472;2022-08-21T06:51:26;19.66;76.57
71175;DHT22;58876;51.994;4.472;2022-08-21T06:53:52;19.60;76.04
71175;DHT22;58876;51.994;4.472;2022-08-21T06:56:18;20.06;75.35
71175;DHT22;58876;51.994;4.472;2022-08-21T06:58:44;20.06;74.91
71175;DHT22;58876;51.994;4.472;2022-08-21T07:01:10;20.07;75.34
71175;DHT22;58876;51.994;4.472;2022-08-21T07:03:41;20.24;74.63
71175;DHT22;58876;51.994;4.472;2022-08-21T07:06:08;20.21;74.67
71175;DHT22;58876;51.994;4.472;2022-08-21T07:08:35;20.37;74.41
71175;DHT22;58876;51.994;4.472;2022-08-21T07:11:06;20.44;73.61
71175;DHT22;58876;51.994;4.472;2022-08-21T07:13:32;20.49;73.89
71175;DHT22;58876;51.994;4.472;2022-08-21T07:15:57;20.72;73.85
71175;DHT22;58876;51.994;4.472;2022-08-21T07:18:23;20.58;74.12
71175;DHT22;58876;51.994;4.472;2022-08-21T07:20:49;20.79;73.28
71175;DHT22;58876;51.994;4.472;2022-08-21T07:23:24;20.69;73.47
71175;DHT22;58876;51.994;4.472;2022-08-21T07:25:51;20.87;73.03
71175;DHT22;58876;51.994;4.472;2022-08-21T07:28:16;20.85;72.92
71175;DHT22;58876;51.994;4.472;2022-08-21T07:30:42;21.20;72.39
71175;DHT22;58876;51.994;4.472;2022-08-21T07:33:08;21.36;71.63
71175;DHT22;58876;51.994;4.472;2022-08-21T07:35:34;21.40;71.85
71175;DHT22;58876;51.994;4.472;2022-08-21T07:37:59;21.59;71.28
71175;DHT22;58876;51.994;4.472;2022-08-21T07:40:25;21.94;70.28
71175;DHT22;58876;51.994;4.472;2022-08-21T07:42:51;22.12;68.64
71175;DHT22;58876;51.994;4.472;2022-08-21T07:45:19;22.36;68.19
71175;DHT22;58876;51.994;4.472;2022-08-21T07:47:46;22.91;66.66
71175;DHT22;58876;51.994;4.472;2022-08-21T07:50:13;23.07;65.39
71175;DHT22;58876;51.994;4.472;2022-08-21T07:52:40;23.46;64.33
71175;DHT22;58876;51.994;4.472;2022-08-21T07:55:09;24.48;61.68
71175;DHT22;58876;51.994;4.472;2022-08-21T07:57:36;25.31;59.19
71175;DHT22;58876;51.994;4.472;2022-08-21T08:00:05;25.37;58.14
71175;DHT22;58876;51.994;4.472;2022-08-21T08:02:36;24.42;60.55
71175;DHT22;58876;51.994;4.472;2022-08-21T08:05:06;24.35;61.15
71175;DHT22;58876;51.994;4.472;2022-08-21T08:07:32;24.03;61.76
71175;DHT22;58876;51.994;4.472;2022-08-21T08:09:57;24.17;62.23
71175;DHT22;58876;51.994;4.472;2022-08-21T08:12:24;25.15;59.48
71175;DHT22;58876;51.994;4.472;2022-08-21T08:14:59;24.99;59.44
71175;DHT22;58876;51.994;4.472;2022-08-21T08:17:25;24.47;60.55
71175;DHT22;58876;51.994;4.472;2022-08-21T08:19:52;23.86;62.81
71175;DHT22;58876;51.994;4.472;2022-08-21T08:22:21;23.29;63.70
71175;DHT22;58876;51.994;4.472;2022-08-21T08:24:51;22.73;65.02
71175;DHT22;58876;51.994;4.472;2022-08-21T08:27:18;23.65;63.52
71175;DHT22;58876;51.994;4.472;2022-08-21T08:29:44;24.27;62.06
71175;DHT22;58876;51.994;4.472;2022-08-21T08:32:10;24.31;60.82
71175;DHT22;58876;51.994;4.472;2022-08-21T08:34:37;24.21;61.26
71175;DHT22;58876;51.994;4.472;2022-08-21T08:37:05;23.65;61.71
71175;DHT22;58876;51.994;4.472;2022-08-21T08:39:31;24.42;60.20
71175;DHT22;58876;51.994;4.472;2022-08-21T08:42:13;24.89;58.99
71175;DHT22;58876;51.994;4.472;2022-08-21T08:44:41;24.93;58.18
71175;DHT22;58876;51.994;4.472;2022-08-21T08:47:13;25.17;57.39
71175;DHT22;58876;51.994;4.472;2022-08-21T08:49:49;24.28;58.98
71175;DHT22;58876;51.994;4.472;2022-08-21T08:52:32;25.13;57.45
71175;DHT22;58876;51.994;4.472;2022-08-21T08:55:08;25.29;56.87
71175;DHT22;58876;51.994;4.472;2022-08-21T08:57:37;24.72;57.90
71175;DHT22;58876;51.994;4.472;2022-08-21T09:00:08;24.16;59.20
71175;DHT22;58876;51.994;4.472;2022-08-21T09:02:41;23.90;57.95
71175;DHT22;58876;51.994;4.472;2022-08-21T09:05:12;23.25;62.04
71175;DHT22;58876;51.994;4.472;2022-08-21T09:08:13;23.53;60.04
71175;DHT22;58876;51.994;4.472;2022-08-21T09:18:52;23.99;58.16
71175;DHT22;58876;51.994;4.472;2022-08-21T09:24:49;23.51;61.33
71175;DHT22;58876;51.994;4.472;2022-08-21T09:27:14;23.67;60.45
71175;DHT22;58876;51.994;4.472;2022-08-21T09:29:46;24.00;60.11
71175;DHT22;58876;51.994;4.472;2022-08-21T09:32:32;23.99;58.15
71175;DHT22;58876;51.994;4.472;2022-08-21T09:35:03;23.73;59.03
71175;DHT22;58876;51.994;4.472;2022-08-21T09:37:31;23.07;62.24
71175;DHT22;58876;51.994;4.472;2022-08-21T09:39:58;23.51;62.32
71175;DHT22;58876;51.994;4.472;2022-08-21T09:42:28;23.65;60.92
71175;DHT22;58876;51.994;4.472;2022-08-21T09:45:17;23.28;60.59
71175;DHT22;58876;51.994;4.472;2022-08-21T09:47:43;23.58;61.66
71175;DHT22;58876;51.994;4.472;2022-08-21T09:50:23;23.28;62.18
71175;DHT22;58876;51.994;4.472;2022-08-21T09:52:58;22.86;64.76
71175;DHT22;58876;51.994;4.472;2022-08-21T09:55:39;22.87;64.07
71175;DHT22;58876;51.994;4.472;2022-08-21T09:58:33;22.78;63.67
71175;DHT22;58876;51.994;4.472;2022-08-21T10:01:02;23.26;63.70
71175;DHT22;58876;51.994;4.472;2022-08-21T10:03:27;23.19;62.42
71175;DHT22;58876;51.994;4.472;2022-08-21T10:06:02;23.76;61.35
71175;DHT22;58876;51.994;4.472;2022-08-21T10:08:32;23.94;60.55
71175;DHT22;58876;51.994;4.472;2022-08-21T10:11:07;24.07;59.91
71175;DHT22;58876;51.994;4.472;2022-08-21T10:13:48;24.58;57.45
71175;DHT22;58876;51.994;4.472;2022-08-21T10:19:48;24.64;57.02
71175;DHT22;58876;51.994;4.472;2022-08-21T10:24:55;24.67;57.71
71175;DHT22;58876;51.994;4.472;2022-08-21T10:30:56;23.90;56.52
71175;DHT22;58876;51.994;4.472;2022-08-21T10:36:30;23.15;58.66
71175;DHT22;58876;51.994;4.472;2022-08-21T10:39:21;23.60;57.88
71175;DHT22;58876;51.994;4.472;2022-08-21T10:42:21;24.30;55.01
71175;DHT22;58876;51.994;4.472;2022-08-21T10:45:09;23.73;56.35
71175;DHT22;58876;51.994;4.472;2022-08-21T10:47:44;23.45;57.60
71175;DHT22;58876;51.994;4.472;2022-08-21T10:50:33;24.21;57.58
71175;DHT22;58876;51.994;4.472;2022-08-21T10:55:51;24.09;54.23
71175;DHT22;58876;51.994;4.472;2022-08-21T10:58:26;24.10;56.21
71175;DHT22;58876;51.994;4.472;2022-08-21T11:01:03;24.16;55.83
71175;DHT22;58876;51.994;4.472;2022-08-21T11:03:45;24.06;54.96
71175;DHT22;58876;51.994;4.472;2022-08-21T11:06:20;24.21;55.72
71175;DHT22;58876;51.994;4.472;2022-08-21T11:08:52;24.31;55.07
71175;DHT22;58876;51.994;4.472;2022-08-21T11:11:29;24.52;55.59
71175;DHT22;58876;51.994;4.472;2022-08-21T11:14:39;24.85;54.10
71175;DHT22;58876;51.994;4.472;2022-08-21T11:17:10;24.82;52.12
71175;DHT22;58876;51.994;4.472;2022-08-21T11:19:42;25.03;52.59
71175;DHT22;58876;51.994;4.472;2022-08-21T11:22:40;24.96;51.91
71175;DHT22;58876;51.994;4.472;2022-08-21T11:25:19;24.64;53.79
71175;DHT22;58876;51.994;4.472;2022-08-21T11:28:00;24.98;52.60
71175;DHT22;58876;51.994;4.472;2022-08-21T11:30:55;25.13;52.29
71175;DHT22;58876;51.994;4.472;2022-08-21T11:36:37;25.02;50.65
71175;DHT22;58876;51.994;4.472;2022-08-21T11:39:27;25.66;50.63
71175;DHT22;58876;51.994;4.472;2022-08-21T11:42:05;25.53;48.79
71175;DHT22;58876;51.994;4.472;2022-08-21T11:47:30;25.09;48.89
71175;DHT22;58876;51.994;4.472;2022-08-21T11:50:18;24.62;49.91
71175;DHT22;58876;51.994;4.472;2022-08-21T11:58:28;25.38;46.82
71175;DHT22;58876;51.994;4.472;2022-08-21T12:01:05;25.80;47.33
71175;DHT22;58876;51.994;4.472;2022-08-21T12:03:50;25.34;47.14
71175;DHT22;58876;51.994;4.472;2022-08-21T12:06:45;24.42;50.01
71175;DHT22;58876;51.994;4.472;2022-08-21T12:09:34;24.51;49.94
71175;DHT22;58876;51.994;4.472;2022-08-21T12:12:12;24.89;48.57
71175;DHT22;58876;51.994;4.472;2022-08-21T12:14:50;25.08;49.91
71175;DHT22;58876;51.994;4.472;2022-08-21T12:17:24;24.76;48.52
71175;DHT22;58876;51.994;4.472;2022-08-21T12:20:14;24.80;48.94
71175;DHT22;58876;51.994;4.472;2022-08-21T12:22:49;25.13;47.58
71175;DHT22;58876;51.994;4.472;2022-08-21T12:25:18;24.96;48.21
71175;DHT22;58876;51.994;4.472;2022-08-21T12:27:50;24.78;48.56
71175;DHT22;58876;51.994;4.472;2022-08-21T12:30:44;24.45;48.18
71175;DHT22;58876;51.994;4.472;2022-08-21T12:35:48;23.86;50.40
71175;DHT22;58876;51.994;4.472;2022-08-21T12:38:20;24.28;48.57
71175;DHT22;58876;51.994;4.472;2022-08-21T12:40:56;24.82;48.82
71175;DHT22;58876;51.994;4.472;2022-08-21T12:43:46;24.55;50.58
71175;DHT22;58876;51.994;4.472;2022-08-21T12:46:20;24.72;50.29
71175;DHT22;58876;51.994;4.472;2022-08-21T12:48:58;24.72;49.55
71175;DHT22;58876;51.994;4.472;2022-08-21T12:51:57;24.44;50.36
71175;DHT22;58876;51.994;4.472;2022-08-21T12:54:41;24.69;50.00
71175;DHT22;58876;51.994;4.472;2022-08-21T12:57:08;25.22;48.34
71175;DHT22;58876;51.994;4.472;2022-08-21T12:59:41;25.67;47.76
71175;DHT22;58876;51.994;4.472;2022-08-21T13:02:18;25.70;47.44
71175;DHT22;58876;51.994;4.472;2022-08-21T13:04:46;25.09;48.50
71175;DHT22;58876;51.994;4.472;2022-08-21T13:07:19;25.31;49.41
71175;DHT22;58876;51.994;4.472;2022-08-21T13:09:52;25.06;47.12
71175;DHT22;58876;51.994;4.472;2022-08-21T13:12:21;25.05;48.71
71175;DHT22;58876;51.994;4.472;2022-08-21T13:14:50;25.50;47.67
71175;DHT22;58876;51.994;4.472;2022-08-21T13:17:19;25.23;48.39
71175;DHT22;58876;51.994;4.472;2022-08-21T13:20:00;24.85;48.86
71175;DHT22;58876;51.994;4.472;2022-08-21T13:22:28;24.58;49.21
71175;DHT22;58876;51.994;4.472;2022-08-21T13:24:54;25.43;48.13
71175;DHT22;58876;51.994;4.472;2022-08-21T13:27:25;25.20;47.60
71175;DHT22;58876;51.994;4.472;2022-08-21T13:30:18;25.41;47.23
71175;DHT22;58876;51.994;4.472;2022-08-21T13:32:49;25.05;48.51
71175;DHT22;58876;51.994;4.472;2022-08-21T13:35:25;24.80;48.24
71175;DHT22;58876;51.994;4.472;2022-08-21T13:37:52;25.08;46.53
71175;DHT22;58876;51.994;4.472;2022-08-21T13:40:29;25.17;45.39
71175;DHT22;58876;51.994;4.472;2022-08-21T13:42:56;24.95;45.02
71175;DHT22;58876;51.994;4.472;2022-08-21T13:45:31;25.13;45.05
71175;DHT22;58876;51.994;4.472;2022-08-21T13:48:00;25.44;45.08
71175;DHT22;58876;51.994;4.472;2022-08-21T13:50:26;25.36;43.31
71175;DHT22;58876;51.994;4.472;2022-08-21T13:55:20;24.93;44.82
71175;DHT22;58876;51.994;4.472;2022-08-21T13:57:46;24.51;45.98
71175;DHT22;58876;51.994;4.472;2022-08-21T14:00:16;24.10;46.76
71175;DHT22;58876;51.994;4.472;2022-08-21T14:02:49;24.20;49.12
71175;DHT22;58876;51.994;4.472;2022-08-21T14:05:25;24.54;51.41
71175;DHT22;58876;51.994;4.472;2022-08-21T14:10:36;23.89;51.77
71175;DHT22;58876;51.994;4.472;2022-08-21T14:13:05;23.89;49.92
71175;DHT22;58876;51.994;4.472;2022-08-21T14:15:33;23.53;51.04
71175;DHT22;58876;51.994;4.472;2022-08-21T14:18:14;23.96;50.78
71175;DHT22;58876;51.994;4.472;2022-08-21T14:20:41;23.93;51.28
71175;DHT22;58876;51.994;4.472;2022-08-21T14:23:06;24.04;52.02
71175;DHT22;58876;51.994;4.472;2022-08-21T14:25:45;24.44;52.60
71175;DHT22;58876;51.994;4.472;2022-08-21T14:28:26;24.49;51.66
71175;DHT22;58876;51.994;4.472;2022-08-21T14:30:54;24.30;52.79
71175;DHT22;58876;51.994;4.472;2022-08-21T14:33:28;23.96;54.22
71175;DHT22;58876;51.994;4.472;2022-08-21T14:35:54;23.02;58.18
71175;DHT22;58876;51.994;4.472;2022-08-21T14:38:23;22.84;58.58
71175;DHT22;58876;51.994;4.472;2022-08-21T14:40:58;22.94;58.46
71175;DHT22;58876;51.994;4.472;2022-08-21T14:43:27;22.98;58.56
71175;DHT22;58876;51.994;4.472;2022-08-21T14:45:53;23.08;58.71
71175;DHT22;58876;51.994;4.472;2022-08-21T14:48:19;23.39;58.47
71175;DHT22;58876;51.994;4.472;2022-08-21T14:50:44;23.52;57.64
71175;DHT22;58876;51.994;4.472;2022-08-21T14:53:15;23.41;57.59
71175;DHT22;58876;51.994;4.472;2022-08-21T14:55:41;23.55;56.57
71175;DHT22;58876;51.994;4.472;2022-08-21T14:58:25;23.65;56.52
71175;DHT22;58876;51.994;4.472;2022-08-21T15:00:54;23.60;56.98
71175;DHT22;58876;51.994;4.472;2022-08-21T15:03:20;23.86;56.62
71175;DHT22;58876;51.994;4.472;2022-08-21T15:05:51;24.41;54.60
71175;DHT22;58876;51.994;4.472;2022-08-21T15:08:17;24.58;53.95
71175;DHT22;58876;51.994;4.472;2022-08-21T15:10:43;24.78;53.38
71175;DHT22;58876;51.994;4.472;2022-08-21T15:13:10;24.59;53.64
71175;DHT22;58876;51.994;4.472;2022-08-21T15:15:41;24.71;53.96
71175;DHT22;58876;51.994;4.472;2022-08-21T15:18:07;24.31;54.23
71175;DHT22;58876;51.994;4.472;2022-08-21T15:20:34;24.76;53.37
71175;DHT22;58876;51.994;4.472;2022-08-21T15:22:59;24.59;53.61
71175;DHT22;58876;51.994;4.472;2022-08-21T15:25:25;24.44;53.43
71175;DHT22;58876;51.994;4.472;2022-08-21T15:27:50;24.57;54.09
71175;DHT22;58876;51.994;4.472;2022-08-21T15:30:16;24.40;54.36
71175;DHT22;58876;51.994;4.472;2022-08-21T15:32:41;24.68;53.55
71175;DHT22;58876;51.994;4.472;2022-08-21T15:35:08;25.12;53.98
71175;DHT22;58876;51.994;4.472;2022-08-21T15:37:34;25.26;51.84
71175;DHT22;58876;51.994;4.472;2022-08-21T15:40:00;24.99;52.19
71175;DHT22;58876;51.994;4.472;2022-08-21T15:42:27;24.95;53.50
71175;DHT22;58876;51.994;4.472;2022-08-21T15:44:55;25.12;52.60
71175;DHT22;58876;51.994;4.472;2022-08-21T15:47:27;25.24;51.98
71175;DHT22;58876;51.994;4.472;2022-08-21T15:49:53;25.03;52.14
71175;DHT22;58876;51.994;4.472;2022-08-21T15:52:21;24.57;52.84
71175;DHT22;58876;51.994;4.472;2022-08-21T15:54:47;24.48;53.61
71175;DHT22;58876;51.994;4.472;2022-08-21T15:57:16;24.61;53.35
71175;DHT22;58876;51.994;4.472;2022-08-21T15:59:46;24.37;53.36
71175;DHT22;58876;51.994;4.472;2022-08-21T16:02:17;24.17;53.67
71175;DHT22;58876;51.994;4.472;2022-08-21T16:04:43;24.20;53.70
71175;DHT22;58876;51.994;4.472;2022-08-21T16:07:09;24.14;53.79
71175;DHT22;58876;51.994;4.472;2022-08-21T16:09:35;24.47;53.77
71175;DHT22;58876;51.994;4.472;2022-08-21T16:12:03;24.89;53.22
71175;DHT22;58876;51.994;4.472;2022-08-21T16:14:30;24.98;52.14
71175;DHT22;58876;51.994;4.472;2022-08-21T16:16:56;25.13;51.82
71175;DHT22;58876;51.994;4.472;2022-08-21T16:19:23;25.13;52.44
71175;DHT22;58876;51.994;4.472;2022-08-21T16:21:48;25.13;51.89
71175;DHT22;58876;51.994;4.472;2022-08-21T16:24:14;25.00;52.50
71175;DHT22;58876;51.994;4.472;2022-08-21T16:26:39;24.86;53.07
71175;DHT22;58876;51.994;4.472;2022-08-21T16:29:06;24.92;52.83
71175;DHT22;58876;51.994;4.472;2022-08-21T16:31:33;24.98;52.24
71175;DHT22;58876;51.994;4.472;2022-08-21T16:34:00;25.00;51.98